This is the latest recevied weather packets stored in our database for station/object K1WJY. If no packets are shown the sender has not sent any weather packets the latest 10 day(s).
| Time | Temp. | Humidity | Pressure | Rain* | Wind** | Luminosity | Snow |
|---|---|---|---|---|---|---|---|
| 1777926089 | 16.67° C | 65% | 1007.5 hPa | 0 mm | - | 430 W/m² | - |
| 1777925785 | 16.11° C | 67% | 1007.4 hPa | 0 mm | - | 465 W/m² | - |
| 1777925483 | 16.11° C | 67% | 1007.7 hPa | 0 mm | - | 171 W/m² | - |
| 1777925180 | 16.67° C | 66% | 1007.3 hPa | 0 mm | - | 395 W/m² | - |
| 1777924876 | 16.67° C | 68% | 1007.3 hPa | 0 mm | - | 512 W/m² | - |
| 1777924573 | 16.11° C | 68% | 1007.4 hPa | 0 mm | - | 515 W/m² | - |
| 1777924269 | 15.56° C | 68% | 1007.5 hPa | 0 mm | - | 522 W/m² | - |
| 1777923966 | 15° C | 72% | 1007.5 hPa | 0 mm | - | 501 W/m² | - |
| 1777923661 | 15° C | 72% | 1007.5 hPa | 0 mm | - | 511 W/m² | - |
| 1777923358 | 15° C | 74% | 1007.6 hPa | 0 mm | - | 414 W/m² | - |
| 1777923057 | 13.89° C | 74% | 1007.9 hPa | 0 mm | - | 542 W/m² | - |
| 1777922755 | 14.44° C | 74% | 1007.8 hPa | 0 mm | - | 572 W/m² | - |
| 1777922452 | 12.78° C | 79% | 1007.9 hPa | 0 mm | - | 691 W/m² | - |
| 1777922150 | 12.78° C | 79% | 1007.8 hPa | 0 mm | - | 271 W/m² | - |
| 1777921846 | 12.78° C | 81% | 1008 hPa | 0 mm | - | 699 W/m² | - |
| 1777921543 | 12.22° C | 82% | 1008.1 hPa | 0 mm | - | 279 W/m² | - |
| 1777921239 | 12.22° C | 82% | 1007.9 hPa | 0 mm | - | 275 W/m² | - |
| 1777920936 | 11.67° C | 85% | 1007.8 hPa | 0 mm | - | 300 W/m² | - |
| 1777920632 | 11.67° C | 83% | 1008.3 hPa | 0 mm | - | 311 W/m² | - |
| 1777920328 | 11.67° C | 85% | 1008.5 hPa | 0 mm | - | 223 W/m² | - |
| 1777920023 | 11.67° C | 84% | 1008.6 hPa | 0 mm | - | 210 W/m² | - |
| 1777919721 | 11.67° C | 82% | 1008.5 hPa | 0 mm | - | 223 W/m² | - |
| 1777919419 | 11.67° C | 82% | 1008.5 hPa | 1.78 mm | - | 231 W/m² | - |
| 1777919115 | 11.67° C | 81% | 1008.5 hPa | 1.78 mm | - | 231 W/m² | - |
| 1777918813 | 12.22° C | 79% | 1008.6 hPa | 0 mm | - | 170 W/m² | - |
* Rain latest hour (hover to see other rain measurements)
** Current wind speed in m/s (hover to see current wind gust speed)